createdAt,value
2022-08-06T00:14:22.087Z,13.41
2022-08-06T00:29:25.934Z,13.08
2022-08-06T00:44:23.228Z,12.38
2022-08-06T00:59:22.194Z,12.45
2022-08-06T01:14:31.929Z,12.22
2022-08-06T01:29:22.251Z,12.38
2022-08-06T01:44:22.292Z,12.39
2022-08-06T01:59:22.257Z,12.01
2022-08-06T02:14:22.380Z,11.52
2022-08-06T02:29:22.413Z,11.50
2022-08-06T02:44:22.517Z,11.11
2022-08-06T02:59:22.471Z,10.76
2022-08-06T03:14:53.845Z,10.95
2022-08-06T03:29:22.572Z,10.82
2022-08-06T03:44:22.549Z,10.85
2022-08-06T03:59:22.547Z,10.83
2022-08-06T04:14:24.077Z,10.68
2022-08-06T04:29:25.211Z,11.25
2022-08-06T04:44:22.633Z,12.65
2022-08-06T04:59:22.787Z,14.42
2022-08-06T05:14:22.747Z,14.74
2022-08-06T05:29:23.229Z,14.83
2022-08-06T05:44:22.944Z,15.73
2022-08-06T05:59:37.374Z,16.73
2022-08-06T06:14:32.396Z,16.29
2022-08-06T06:30:00.777Z,16.71
2022-08-06T06:44:24.421Z,17.31
2022-08-06T06:59:26.237Z,17.78
2022-08-06T07:14:24.793Z,17.78
2022-08-06T07:29:50.059Z,18.48
2022-08-06T07:44:28.912Z,18.87
2022-08-06T07:59:26.108Z,19.41
2022-08-06T08:14:23.331Z,19.18
2022-08-06T08:29:27.423Z,19.11
2022-08-06T08:44:26.533Z,19.70
2022-08-06T08:59:59.487Z,19.60
2022-08-06T09:14:28.391Z,19.33
2022-08-06T09:29:33.658Z,19.60
2022-08-06T09:44:35.371Z,20.44
2022-08-06T09:59:23.630Z,20.45
2022-08-06T10:14:26.079Z,21.90
2022-08-06T10:29:24.027Z,20.46
2022-08-06T10:44:28.506Z,21.04
2022-08-06T10:59:25.671Z,21.40
2022-08-06T11:14:23.915Z,21.51
2022-08-06T11:29:55.239Z,20.36
2022-08-06T11:44:25.264Z,20.34
2022-08-06T11:59:24.132Z,21.63
2022-08-06T12:14:34.022Z,20.62
2022-08-06T12:29:41.446Z,20.87
2022-08-06T12:44:56.210Z,21.31
2022-08-06T12:59:24.620Z,21.55
2022-08-06T13:14:24.282Z,21.38
2022-08-06T13:30:34.712Z,23.59
2022-08-06T13:44:29.182Z,21.86
2022-08-06T13:59:40.026Z,22.26
2022-08-06T14:14:24.804Z,22.79
2022-08-06T14:30:25.362Z,23.19
2022-08-06T14:44:24.612Z,23.28
2022-08-06T14:59:25.991Z,21.62
2022-08-06T15:14:24.551Z,21.69
2022-08-06T15:29:24.963Z,22.13
2022-08-06T15:44:30.871Z,22.25
2022-08-06T15:59:25.050Z,21.97
2022-08-06T16:14:33.505Z,21.90
2022-08-06T16:29:24.878Z,21.52
2022-08-06T16:59:25.078Z,23.34
2022-08-06T17:14:25.111Z,23.31
2022-08-06T17:29:45.554Z,22.48
2022-08-06T17:44:25.049Z,21.91
2022-08-06T17:59:29.756Z,22.24
2022-08-06T18:14:32.985Z,21.71
2022-08-06T18:29:58.877Z,21.04
2022-08-06T18:44:27.354Z,20.44
2022-08-06T18:59:28.374Z,19.96
2022-08-06T19:14:25.437Z,19.50
2022-08-06T19:29:56.915Z,19.14
2022-08-06T19:44:33.207Z,18.60
2022-08-06T20:00:51.489Z,18.42
2022-08-06T20:14:25.544Z,17.91
2022-08-06T20:30:03.146Z,17.72
2022-08-06T20:44:25.563Z,17.58
2022-08-06T20:59:37.384Z,17.32
2022-08-06T21:14:30.564Z,16.86
2022-08-06T21:30:07.928Z,16.89
2022-08-06T21:44:27.789Z,16.81
2022-08-06T21:59:25.728Z,16.74
2022-08-06T22:14:28.745Z,16.63
2022-08-06T22:29:27.335Z,15.97
2022-08-06T22:44:30.673Z,15.82
2022-08-06T23:00:06.671Z,15.47
2022-08-06T23:14:31.656Z,14.87
2022-08-06T23:29:26.611Z,14.59
2022-08-06T23:44:28.731Z,14.47
2022-08-06T23:59:44.069Z,14.30
